sensor_id;sensor_type;location;lat;lon;timestamp;P1;durP1;ratioP1;P2;durP2;ratioP2
56537;SDS011;42435;53.292;6.000;2024-03-23T00:52:16;20.08;;;5.43;;
56537;SDS011;42435;53.292;6.000;2024-03-23T00:54:55;17.17;;;4.78;;
56537;SDS011;42435;53.292;6.000;2024-03-23T00:57:37;20.02;;;6.10;;
56537;SDS011;42435;53.292;6.000;2024-03-23T01:00:09;18.50;;;5.43;;
56537;SDS011;42435;53.292;6.000;2024-03-23T01:02:41;19.25;;;4.93;;
56537;SDS011;42435;53.292;6.000;2024-03-23T01:05:07;17.67;;;4.88;;
56537;SDS011;42435;53.292;6.000;2024-03-23T01:07:36;18.08;;;4.55;;
56537;SDS011;42435;53.292;6.000;2024-03-23T01:10:06;22.20;;;6.18;;
56537;SDS011;42435;53.292;6.000;2024-03-23T01:12:35;17.92;;;4.95;;
56537;SDS011;42435;53.292;6.000;2024-03-23T01:15:01;19.90;;;4.50;;
56537;SDS011;42435;53.292;6.000;2024-03-23T01:17:31;17.10;;;4.32;;
56537;SDS011;42435;53.292;6.000;2024-03-23T01:20:01;19.75;;;4.72;;
56537;SDS011;42435;53.292;6.000;2024-03-23T01:22:34;15.55;;;4.43;;
56537;SDS011;42435;53.292;6.000;2024-03-23T01:25:09;23.08;;;4.88;;
56537;SDS011;42435;53.292;6.000;2024-03-23T01:27:42;18.85;;;5.15;;
56537;SDS011;42435;53.292;6.000;2024-03-23T01:30:11;15.35;;;4.60;;
56537;SDS011;42435;53.292;6.000;2024-03-23T01:32:43;19.15;;;5.53;;
56537;SDS011;42435;53.292;6.000;2024-03-23T01:35:25;14.95;;;4.20;;
56537;SDS011;42435;53.292;6.000;2024-03-23T01:37:51;23.88;;;3.88;;
56537;SDS011;42435;53.292;6.000;2024-03-23T01:40:29;18.10;;;4.93;;
56537;SDS011;42435;53.292;6.000;2024-03-23T01:42:58;15.00;;;4.53;;
56537;SDS011;42435;53.292;6.000;2024-03-23T01:45:29;18.15;;;4.22;;
56537;SDS011;42435;53.292;6.000;2024-03-23T01:47:56;15.35;;;4.38;;
56537;SDS011;42435;53.292;6.000;2024-03-23T01:50:24;17.20;;;4.20;;
56537;SDS011;42435;53.292;6.000;2024-03-23T01:52:53;24.00;;;4.30;;
56537;SDS011;42435;53.292;6.000;2024-03-23T01:55:22;14.40;;;3.72;;
56537;SDS011;42435;53.292;6.000;2024-03-23T01:57:58;18.30;;;3.97;;
56537;SDS011;42435;53.292;6.000;2024-03-23T02:00:37;16.60;;;4.13;;
56537;SDS011;42435;53.292;6.000;2024-03-23T02:03:23;20.58;;;3.30;;
56537;SDS011;42435;53.292;6.000;2024-03-23T02:06:13;21.13;;;3.92;;
56537;SDS011;42435;53.292;6.000;2024-03-23T02:08:43;16.13;;;3.72;;
56537;SDS011;42435;53.292;6.000;2024-03-23T02:11:14;17.65;;;3.90;;
56537;SDS011;42435;53.292;6.000;2024-03-23T02:13:42;16.73;;;4.20;;
56537;SDS011;42435;53.292;6.000;2024-03-23T02:16:20;17.38;;;4.07;;
56537;SDS011;42435;53.292;6.000;2024-03-23T02:19:02;22.85;;;4.38;;
56537;SDS011;42435;53.292;6.000;2024-03-23T02:21:29;16.45;;;4.15;;
56537;SDS011;42435;53.292;6.000;2024-03-23T02:24:23;13.73;;;3.47;;
56537;SDS011;42435;53.292;6.000;2024-03-23T02:27:11;17.52;;;3.83;;
56537;SDS011;42435;53.292;6.000;2024-03-23T02:29:40;18.13;;;3.78;;
56537;SDS011;42435;53.292;6.000;2024-03-23T02:32:11;27.40;;;7.85;;
56537;SDS011;42435;53.292;6.000;2024-03-23T02:34:37;18.42;;;5.55;;
56537;SDS011;42435;53.292;6.000;2024-03-23T02:37:35;15.45;;;5.50;;
56537;SDS011;42435;53.292;6.000;2024-03-23T02:40:08;20.13;;;4.60;;
56537;SDS011;42435;53.292;6.000;2024-03-23T02:43:17;18.75;;;4.53;;
56537;SDS011;42435;53.292;6.000;2024-03-23T02:45:43;17.73;;;5.20;;
56537;SDS011;42435;53.292;6.000;2024-03-23T02:48:16;11.88;;;3.17;;
56537;SDS011;42435;53.292;6.000;2024-03-23T02:50:52;14.75;;;3.85;;
56537;SDS011;42435;53.292;6.000;2024-03-23T02:53:26;16.13;;;3.58;;
56537;SDS011;42435;53.292;6.000;2024-03-23T02:55:57;12.82;;;3.90;;
56537;SDS011;42435;53.292;6.000;2024-03-23T02:58:37;11.52;;;3.35;;
56537;SDS011;42435;53.292;6.000;2024-03-23T03:01:10;11.18;;;3.28;;
56537;SDS011;42435;53.292;6.000;2024-03-23T03:03:41;12.88;;;3.30;;
56537;SDS011;42435;53.292;6.000;2024-03-23T03:06:11;10.60;;;3.05;;
56537;SDS011;42435;53.292;6.000;2024-03-23T03:08:51;14.63;;;3.28;;
56537;SDS011;42435;53.292;6.000;2024-03-23T03:11:20;12.20;;;3.03;;
56537;SDS011;42435;53.292;6.000;2024-03-23T03:13:54;15.95;;;3.13;;
56537;SDS011;42435;53.292;6.000;2024-03-23T03:16:27;14.52;;;2.95;;
56537;SDS011;42435;53.292;6.000;2024-03-23T03:19:08;13.85;;;3.40;;
56537;SDS011;42435;53.292;6.000;2024-03-23T03:21:39;12.98;;;3.47;;
56537;SDS011;42435;53.292;6.000;2024-03-23T03:26:47;16.90;;;3.75;;
56537;SDS011;42435;53.292;6.000;2024-03-23T03:29:37;19.38;;;3.88;;
56537;SDS011;42435;53.292;6.000;2024-03-23T03:32:09;15.60;;;3.75;;
56537;SDS011;42435;53.292;6.000;2024-03-23T03:34:37;15.23;;;4.93;;
56537;SDS011;42435;53.292;6.000;2024-03-23T03:37:18;16.10;;;2.78;;
56537;SDS011;42435;53.292;6.000;2024-03-23T03:39:51;12.00;;;2.90;;
56537;SDS011;42435;53.292;6.000;2024-03-23T03:42:18;17.30;;;3.53;;
56537;SDS011;42435;53.292;6.000;2024-03-23T03:44:45;19.55;;;3.42;;
56537;SDS011;42435;53.292;6.000;2024-03-23T03:47:18;19.02;;;4.13;;
56537;SDS011;42435;53.292;6.000;2024-03-23T03:49:54;11.93;;;3.13;;
56537;SDS011;42435;53.292;6.000;2024-03-23T03:52:23;15.35;;;3.08;;
56537;SDS011;42435;53.292;6.000;2024-03-23T03:55:01;17.77;;;4.70;;
56537;SDS011;42435;53.292;6.000;2024-03-23T03:57:28;16.30;;;2.90;;
56537;SDS011;42435;53.292;6.000;2024-03-23T03:59:58;11.85;;;3.10;;
56537;SDS011;42435;53.292;6.000;2024-03-23T04:02:30;16.98;;;3.13;;
56537;SDS011;42435;53.292;6.000;2024-03-23T04:04:58;12.50;;;2.92;;
56537;SDS011;42435;53.292;6.000;2024-03-23T04:07:37;16.60;;;4.45;;
56537;SDS011;42435;53.292;6.000;2024-03-23T04:10:04;17.42;;;3.58;;
56537;SDS011;42435;53.292;6.000;2024-03-23T04:12:36;18.75;;;2.97;;
56537;SDS011;42435;53.292;6.000;2024-03-23T04:15:06;12.32;;;3.05;;
56537;SDS011;42435;53.292;6.000;2024-03-23T04:17:33;13.07;;;3.72;;
56537;SDS011;42435;53.292;6.000;2024-03-23T04:20:03;13.18;;;3.10;;
56537;SDS011;42435;53.292;6.000;2024-03-23T04:22:50;22.10;;;3.30;;
56537;SDS011;42435;53.292;6.000;2024-03-23T04:25:29;19.05;;;2.80;;
56537;SDS011;42435;53.292;6.000;2024-03-23T04:28:00;12.60;;;2.95;;
56537;SDS011;42435;53.292;6.000;2024-03-23T04:30:32;11.88;;;3.30;;
56537;SDS011;42435;53.292;6.000;2024-03-23T04:33:05;20.98;;;3.55;;
56537;SDS011;42435;53.292;6.000;2024-03-23T04:35:53;13.18;;;3.00;;
56537;SDS011;42435;53.292;6.000;2024-03-23T04:38:22;14.27;;;2.97;;
56537;SDS011;42435;53.292;6.000;2024-03-23T04:40:57;17.98;;;3.00;;
56537;SDS011;42435;53.292;6.000;2024-03-23T04:43:31;18.13;;;3.55;;
56537;SDS011;42435;53.292;6.000;2024-03-23T04:45:57;13.63;;;2.83;;
56537;SDS011;42435;53.292;6.000;2024-03-23T04:48:35;21.70;;;4.07;;
56537;SDS011;42435;53.292;6.000;2024-03-23T04:51:05;16.55;;;3.10;;
56537;SDS011;42435;53.292;6.000;2024-03-23T04:53:43;17.80;;;3.10;;
56537;SDS011;42435;53.292;6.000;2024-03-23T04:58:51;11.65;;;3.03;;
56537;SDS011;42435;53.292;6.000;2024-03-23T05:01:30;13.10;;;2.33;;
56537;SDS011;42435;53.292;6.000;2024-03-23T05:04:01;17.77;;;3.10;;
56537;SDS011;42435;53.292;6.000;2024-03-23T05:06:30;13.23;;;3.67;;
56537;SDS011;42435;53.292;6.000;2024-03-23T05:09:02;15.10;;;2.70;;
56537;SDS011;42435;53.292;6.000;2024-03-23T05:11:36;18.30;;;2.50;;
56537;SDS011;42435;53.292;6.000;2024-03-23T05:14:11;16.42;;;2.70;;
56537;SDS011;42435;53.292;6.000;2024-03-23T05:16:39;13.40;;;2.58;;
56537;SDS011;42435;53.292;6.000;2024-03-23T05:19:06;11.93;;;2.35;;
56537;SDS011;42435;53.292;6.000;2024-03-23T05:21:33;10.38;;;2.65;;
56537;SDS011;42435;53.292;6.000;2024-03-23T05:24:03;11.65;;;2.60;;
56537;SDS011;42435;53.292;6.000;2024-03-23T05:26:43;12.93;;;2.55;;
56537;SDS011;42435;53.292;6.000;2024-03-23T05:29:17;8.68;;;2.72;;
56537;SDS011;42435;53.292;6.000;2024-03-23T05:31:49;6.88;;;2.20;;
56537;SDS011;42435;53.292;6.000;2024-03-23T05:34:20;8.50;;;1.50;;
56537;SDS011;42435;53.292;6.000;2024-03-23T05:37:03;7.03;;;1.58;;
56537;SDS011;42435;53.292;6.000;2024-03-23T05:39:46;6.32;;;1.40;;
56537;SDS011;42435;53.292;6.000;2024-03-23T05:42:32;10.65;;;1.80;;
56537;SDS011;42435;53.292;6.000;2024-03-23T05:45:06;6.93;;;1.58;;
56537;SDS011;42435;53.292;6.000;2024-03-23T05:47:35;9.25;;;2.35;;
56537;SDS011;42435;53.292;6.000;2024-03-23T05:50:11;7.57;;;2.03;;
56537;SDS011;42435;53.292;6.000;2024-03-23T05:52:45;10.48;;;2.92;;
56537;SDS011;42435;53.292;6.000;2024-03-23T05:55:34;12.50;;;2.63;;
56537;SDS011;42435;53.292;6.000;2024-03-23T05:58:06;8.23;;;2.78;;
56537;SDS011;42435;53.292;6.000;2024-03-23T06:00:37;10.27;;;3.25;;
56537;SDS011;42435;53.292;6.000;2024-03-23T06:03:10;11.75;;;3.53;;
56537;SDS011;42435;53.292;6.000;2024-03-23T06:05:57;7.95;;;2.72;;
56537;SDS011;42435;53.292;6.000;2024-03-23T06:08:34;13.15;;;3.08;;
56537;SDS011;42435;53.292;6.000;2024-03-23T06:11:12;13.65;;;2.80;;
56537;SDS011;42435;53.292;6.000;2024-03-23T06:13:46;13.00;;;3.53;;
56537;SDS011;42435;53.292;6.000;2024-03-23T06:16:32;11.93;;;2.80;;
56537;SDS011;42435;53.292;6.000;2024-03-23T06:19:03;9.50;;;2.70;;
56537;SDS011;42435;53.292;6.000;2024-03-23T06:22:11;12.90;;;3.20;;
56537;SDS011;42435;53.292;6.000;2024-03-23T06:24:44;14.75;;;3.00;;
56537;SDS011;42435;53.292;6.000;2024-03-23T06:27:15;13.48;;;2.97;;
56537;SDS011;42435;53.292;6.000;2024-03-23T06:29:49;10.10;;;3.53;;
56537;SDS011;42435;53.292;6.000;2024-03-23T06:32:27;11.68;;;3.40;;
56537;SDS011;42435;53.292;6.000;2024-03-23T06:35:19;13.40;;;4.07;;
56537;SDS011;42435;53.292;6.000;2024-03-23T06:37:53;11.65;;;3.08;;
56537;SDS011;42435;53.292;6.000;2024-03-23T06:40:24;12.73;;;3.50;;
56537;SDS011;42435;53.292;6.000;2024-03-23T06:43:00;12.43;;;2.92;;
56537;SDS011;42435;53.292;6.000;2024-03-23T06:45:33;11.30;;;2.92;;
56537;SDS011;42435;53.292;6.000;2024-03-23T06:48:12;16.90;;;3.63;;
56537;SDS011;42435;53.292;6.000;2024-03-23T06:51:09;12.18;;;2.80;;
56537;SDS011;42435;53.292;6.000;2024-03-23T06:53:50;13.98;;;4.45;;
56537;SDS011;42435;53.292;6.000;2024-03-23T06:56:18;13.35;;;4.32;;
56537;SDS011;42435;53.292;6.000;2024-03-23T06:58:53;11.20;;;2.78;;
56537;SDS011;42435;53.292;6.000;2024-03-23T07:01:25;16.52;;;3.15;;
56537;SDS011;42435;53.292;6.000;2024-03-23T07:04:12;10.45;;;3.25;;
56537;SDS011;42435;53.292;6.000;2024-03-23T07:06:45;8.45;;;2.75;;
56537;SDS011;42435;53.292;6.000;2024-03-23T07:09:22;8.52;;;2.65;;
56537;SDS011;42435;53.292;6.000;2024-03-23T07:12:01;11.60;;;2.40;;
56537;SDS011;42435;53.292;6.000;2024-03-23T07:14:30;10.43;;;3.33;;
56537;SDS011;42435;53.292;6.000;2024-03-23T07:19:48;13.95;;;3.45;;
56537;SDS011;42435;53.292;6.000;2024-03-23T07:22:23;16.35;;;4.22;;
56537;SDS011;42435;53.292;6.000;2024-03-23T07:24:56;16.38;;;4.40;;
56537;SDS011;42435;53.292;6.000;2024-03-23T07:27:47;13.27;;;4.55;;
56537;SDS011;42435;53.292;6.000;2024-03-23T07:30:22;17.67;;;5.68;;
56537;SDS011;42435;53.292;6.000;2024-03-23T07:32:55;15.10;;;4.28;;
56537;SDS011;42435;53.292;6.000;2024-03-23T07:35:27;8.20;;;2.75;;
56537;SDS011;42435;53.292;6.000;2024-03-23T07:38:05;7.85;;;2.80;;
56537;SDS011;42435;53.292;6.000;2024-03-23T07:40:39;7.07;;;2.28;;
56537;SDS011;42435;53.292;6.000;2024-03-23T07:43:09;7.32;;;2.05;;
56537;SDS011;42435;53.292;6.000;2024-03-23T07:45:50;5.22;;;1.77;;
56537;SDS011;42435;53.292;6.000;2024-03-23T07:48:36;7.00;;;2.53;;
56537;SDS011;42435;53.292;6.000;2024-03-23T07:51:10;8.90;;;2.00;;
56537;SDS011;42435;53.292;6.000;2024-03-23T07:53:45;5.13;;;1.90;;
56537;SDS011;42435;53.292;6.000;2024-03-23T07:56:17;8.43;;;3.47;;
56537;SDS011;42435;53.292;6.000;2024-03-23T07:58:54;14.05;;;5.28;;
56537;SDS011;42435;53.292;6.000;2024-03-23T08:01:21;9.35;;;3.60;;
56537;SDS011;42435;53.292;6.000;2024-03-23T08:03:49;8.52;;;3.08;;
56537;SDS011;42435;53.292;6.000;2024-03-23T08:06:24;9.02;;;3.10;;
56537;SDS011;42435;53.292;6.000;2024-03-23T08:09:06;13.10;;;4.47;;
56537;SDS011;42435;53.292;6.000;2024-03-23T08:11:43;10.40;;;3.25;;
56537;SDS011;42435;53.292;6.000;2024-03-23T08:14:12;10.15;;;3.03;;
56537;SDS011;42435;53.292;6.000;2024-03-23T08:16:41;9.98;;;2.53;;
56537;SDS011;42435;53.292;6.000;2024-03-23T08:19:17;13.25;;;3.67;;
56537;SDS011;42435;53.292;6.000;2024-03-23T08:21:56;11.30;;;4.10;;
56537;SDS011;42435;53.292;6.000;2024-03-23T08:24:28;13.63;;;3.25;;
56537;SDS011;42435;53.292;6.000;2024-03-23T08:27:10;13.50;;;3.33;;
56537;SDS011;42435;53.292;6.000;2024-03-23T08:29:45;13.48;;;3.60;;
56537;SDS011;42435;53.292;6.000;2024-03-23T08:32:41;14.68;;;3.80;;
56537;SDS011;42435;53.292;6.000;2024-03-23T08:35:09;14.15;;;2.83;;
56537;SDS011;42435;53.292;6.000;2024-03-23T08:37:38;12.20;;;3.53;;
56537;SDS011;42435;53.292;6.000;2024-03-23T08:40:11;9.88;;;3.47;;
56537;SDS011;42435;53.292;6.000;2024-03-23T08:42:43;10.18;;;2.13;;
56537;SDS011;42435;53.292;6.000;2024-03-23T08:45:24;10.63;;;2.70;;
56537;SDS011;42435;53.292;6.000;2024-03-23T08:48:13;10.23;;;2.80;;
56537;SDS011;42435;53.292;6.000;2024-03-23T08:50:39;7.13;;;1.75;;
56537;SDS011;42435;53.292;6.000;2024-03-23T08:53:10;8.20;;;1.38;;
56537;SDS011;42435;53.292;6.000;2024-03-23T08:55:38;5.78;;;1.60;;
56537;SDS011;42435;53.292;6.000;2024-03-23T08:58:07;6.15;;;1.73;;
56537;SDS011;42435;53.292;6.000;2024-03-23T09:00:37;7.53;;;2.05;;
56537;SDS011;42435;53.292;6.000;2024-03-23T09:03:11;4.87;;;1.20;;
56537;SDS011;42435;53.292;6.000;2024-03-23T09:05:39;6.68;;;1.40;;
56537;SDS011;42435;53.292;6.000;2024-03-23T09:08:23;5.60;;;1.60;;
56537;SDS011;42435;53.292;6.000;2024-03-23T09:10:54;6.50;;;1.20;;
56537;SDS011;42435;53.292;6.000;2024-03-23T09:13:28;6.82;;;1.50;;
56537;SDS011;42435;53.292;6.000;2024-03-23T09:15:57;9.73;;;2.17;;
56537;SDS011;42435;53.292;6.000;2024-03-23T09:21:17;11.35;;;2.25;;
56537;SDS011;42435;53.292;6.000;2024-03-23T09:23:49;11.40;;;2.30;;
56537;SDS011;42435;53.292;6.000;2024-03-23T09:26:22;9.25;;;2.35;;
56537;SDS011;42435;53.292;6.000;2024-03-23T09:28:53;11.75;;;2.60;;
56537;SDS011;42435;53.292;6.000;2024-03-23T09:31:23;14.90;;;3.13;;
56537;SDS011;42435;53.292;6.000;2024-03-23T09:33:54;16.60;;;3.35;;
56537;SDS011;42435;53.292;6.000;2024-03-23T09:36:25;13.20;;;3.10;;
56537;SDS011;42435;53.292;6.000;2024-03-23T09:38:54;11.45;;;2.60;;
56537;SDS011;42435;53.292;6.000;2024-03-23T09:41:33;13.55;;;3.75;;
56537;SDS011;42435;53.292;6.000;2024-03-23T09:44:04;13.82;;;3.42;;
56537;SDS011;42435;53.292;6.000;2024-03-23T09:46:39;13.30;;;2.92;;
56537;SDS011;42435;53.292;6.000;2024-03-23T09:49:24;12.07;;;3.45;;
56537;SDS011;42435;53.292;6.000;2024-03-23T09:52:04;12.20;;;3.42;;
56537;SDS011;42435;53.292;6.000;2024-03-23T09:54:52;12.57;;;3.60;;
56537;SDS011;42435;53.292;6.000;2024-03-23T09:57:19;12.23;;;2.90;;
56537;SDS011;42435;53.292;6.000;2024-03-23T10:00:00;13.60;;;2.78;;
56537;SDS011;42435;53.292;6.000;2024-03-23T10:02:35;12.20;;;3.65;;
56537;SDS011;42435;53.292;6.000;2024-03-23T10:05:39;12.60;;;3.58;;
56537;SDS011;42435;53.292;6.000;2024-03-23T10:09:27;11.85;;;2.70;;
56537;SDS011;42435;53.292;6.000;2024-03-23T10:12:29;11.43;;;3.25;;
56537;SDS011;42435;53.292;6.000;2024-03-23T10:15:26;13.38;;;3.35;;
56537;SDS011;42435;53.292;6.000;2024-03-23T10:22:02;9.13;;;1.60;;
56537;SDS011;42435;53.292;6.000;2024-03-23T10:24:54;5.28;;;1.58;;
56537;SDS011;42435;53.292;6.000;2024-03-23T10:32:07;11.93;;;3.85;;
56537;SDS011;42435;53.292;6.000;2024-03-23T10:34:41;11.82;;;2.67;;
56537;SDS011;42435;53.292;6.000;2024-03-23T10:37:29;13.57;;;2.30;;
56537;SDS011;42435;53.292;6.000;2024-03-23T10:39:59;10.40;;;2.10;;
56537;SDS011;42435;53.292;6.000;2024-03-23T10:42:40;11.48;;;2.95;;
56537;SDS011;42435;53.292;6.000;2024-03-23T10:45:09;14.02;;;3.97;;
56537;SDS011;42435;53.292;6.000;2024-03-23T10:47:54;12.00;;;3.50;;
56537;SDS011;42435;53.292;6.000;2024-03-23T10:50:21;11.70;;;3.85;;
56537;SDS011;42435;53.292;6.000;2024-03-23T10:52:57;13.93;;;3.40;;
56537;SDS011;42435;53.292;6.000;2024-03-23T10:55:25;11.20;;;3.38;;
56537;SDS011;42435;53.292;6.000;2024-03-23T10:57:59;9.05;;;2.97;;
56537;SDS011;42435;53.292;6.000;2024-03-23T11:00:29;9.63;;;2.60;;
56537;SDS011;42435;53.292;6.000;2024-03-23T11:03:39;11.13;;;2.80;;
56537;SDS011;42435;53.292;6.000;2024-03-23T11:06:34;14.23;;;2.88;;
56537;SDS011;42435;53.292;6.000;2024-03-23T11:09:01;12.88;;;3.28;;
56537;SDS011;42435;53.292;6.000;2024-03-23T11:11:51;13.93;;;3.33;;
56537;SDS011;42435;53.292;6.000;2024-03-23T11:14:25;11.63;;;3.08;;
56537;SDS011;42435;53.292;6.000;2024-03-23T11:17:11;13.15;;;3.95;;
56537;SDS011;42435;53.292;6.000;2024-03-23T11:20:03;12.30;;;3.00;;
56537;SDS011;42435;53.292;6.000;2024-03-23T11:25:49;9.95;;;2.83;;
56537;SDS011;42435;53.292;6.000;2024-03-23T11:28:33;10.02;;;2.90;;
56537;SDS011;42435;53.292;6.000;2024-03-23T11:31:11;13.18;;;3.42;;
56537;SDS011;42435;53.292;6.000;2024-03-23T11:33:38;11.55;;;3.22;;
56537;SDS011;42435;53.292;6.000;2024-03-23T11:36:09;10.52;;;2.10;;
56537;SDS011;42435;53.292;6.000;2024-03-23T11:38:44;8.90;;;1.98;;
56537;SDS011;42435;53.292;6.000;2024-03-23T11:41:11;10.60;;;2.60;;
56537;SDS011;42435;53.292;6.000;2024-03-23T11:43:45;11.18;;;3.10;;
56537;SDS011;42435;53.292;6.000;2024-03-23T11:46:24;14.32;;;2.53;;
56537;SDS011;42435;53.292;6.000;2024-03-23T11:49:28;5.05;;;1.58;;
56537;SDS011;42435;53.292;6.000;2024-03-23T11:52:25;6.45;;;1.40;;
56537;SDS011;42435;53.292;6.000;2024-03-23T11:55:08;8.68;;;2.30;;
56537;SDS011;42435;53.292;6.000;2024-03-23T11:57:59;9.68;;;2.45;;
56537;SDS011;42435;53.292;6.000;2024-03-23T12:01:09;10.48;;;2.97;;
56537;SDS011;42435;53.292;6.000;2024-03-23T12:03:54;21.65;;;2.78;;
56537;SDS011;42435;53.292;6.000;2024-03-23T12:10:06;12.63;;;3.38;;
56537;SDS011;42435;53.292;6.000;2024-03-23T12:12:43;10.10;;;2.30;;
56537;SDS011;42435;53.292;6.000;2024-03-23T12:15:21;8.10;;;2.70;;
56537;SDS011;42435;53.292;6.000;2024-03-23T12:18:10;10.73;;;2.45;;
56537;SDS011;42435;53.292;6.000;2024-03-23T12:21:21;15.18;;;2.13;;
56537;SDS011;42435;53.292;6.000;2024-03-23T12:24:31;10.95;;;2.38;;
56537;SDS011;42435;53.292;6.000;2024-03-23T12:27:37;8.95;;;2.50;;
56537;SDS011;42435;53.292;6.000;2024-03-23T12:30:12;11.18;;;2.92;;
56537;SDS011;42435;53.292;6.000;2024-03-23T12:33:21;9.27;;;1.77;;
56537;SDS011;42435;53.292;6.000;2024-03-23T12:39:57;28.40;;;5.13;;
56537;SDS011;42435;53.292;6.000;2024-03-23T12:43:37;6.60;;;2.60;;
56537;SDS011;42435;53.292;6.000;2024-03-23T12:47:05;17.23;;;3.33;;
56537;SDS011;42435;53.292;6.000;2024-03-23T12:50:18;7.15;;;1.88;;
56537;SDS011;42435;53.292;6.000;2024-03-23T12:53:58;16.05;;;3.17;;
56537;SDS011;42435;53.292;6.000;2024-03-23T12:56:26;11.30;;;3.03;;
56537;SDS011;42435;53.292;6.000;2024-03-23T12:59:04;16.08;;;3.22;;
56537;SDS011;42435;53.292;6.000;2024-03-23T13:01:40;12.70;;;2.85;;
56537;SDS011;42435;53.292;6.000;2024-03-23T13:04:09;13.75;;;3.03;;
56537;SDS011;42435;53.292;6.000;2024-03-23T13:06:39;11.45;;;2.85;;
56537;SDS011;42435;53.292;6.000;2024-03-23T13:09:07;11.93;;;2.85;;
56537;SDS011;42435;53.292;6.000;2024-03-23T13:11:47;10.45;;;1.95;;
56537;SDS011;42435;53.292;6.000;2024-03-23T13:14:21;8.32;;;1.60;;
56537;SDS011;42435;53.292;6.000;2024-03-23T13:16:59;10.10;;;2.33;;
56537;SDS011;42435;53.292;6.000;2024-03-23T13:19:32;9.70;;;2.17;;
56537;SDS011;42435;53.292;6.000;2024-03-23T13:22:12;12.25;;;2.33;;
56537;SDS011;42435;53.292;6.000;2024-03-23T13:24:45;9.35;;;2.60;;
56537;SDS011;42435;53.292;6.000;2024-03-23T13:27:15;12.20;;;2.70;;
56537;SDS011;42435;53.292;6.000;2024-03-23T13:29:46;11.38;;;2.70;;
56537;SDS011;42435;53.292;6.000;2024-03-23T13:32:36;11.38;;;3.38;;
56537;SDS011;42435;53.292;6.000;2024-03-23T13:35:08;10.00;;;2.53;;
56537;SDS011;42435;53.292;6.000;2024-03-23T13:37:38;13.77;;;3.97;;
56537;SDS011;42435;53.292;6.000;2024-03-23T13:40:08;14.13;;;3.47;;
56537;SDS011;42435;53.292;6.000;2024-03-23T13:42:36;13.10;;;2.88;;
56537;SDS011;42435;53.292;6.000;2024-03-23T13:45:14;11.88;;;2.83;;
56537;SDS011;42435;53.292;6.000;2024-03-23T13:47:46;12.75;;;3.13;;
56537;SDS011;42435;53.292;6.000;2024-03-23T13:50:16;12.95;;;3.70;;
56537;SDS011;42435;53.292;6.000;2024-03-23T13:52:43;14.75;;;2.88;;
56537;SDS011;42435;53.292;6.000;2024-03-23T13:55:20;6.57;;;2.30;;
56537;SDS011;42435;53.292;6.000;2024-03-23T13:57:53;12.65;;;2.33;;
56537;SDS011;42435;53.292;6.000;2024-03-23T14:00:20;13.80;;;2.42;;
56537;SDS011;42435;53.292;6.000;2024-03-23T14:02:45;14.80;;;4.47;;
56537;SDS011;42435;53.292;6.000;2024-03-23T14:05:11;8.63;;;2.97;;
56537;SDS011;42435;53.292;6.000;2024-03-23T14:07:37;12.70;;;2.92;;
56537;SDS011;42435;53.292;6.000;2024-03-23T14:10:03;12.25;;;2.42;;
56537;SDS011;42435;53.292;6.000;2024-03-23T14:12:31;10.90;;;2.30;;
56537;SDS011;42435;53.292;6.000;2024-03-23T14:14:57;10.52;;;2.03;;
56537;SDS011;42435;53.292;6.000;2024-03-23T14:17:24;11.23;;;1.70;;
56537;SDS011;42435;53.292;6.000;2024-03-23T14:19:51;8.73;;;2.20;;
56537;SDS011;42435;53.292;6.000;2024-03-23T14:22:16;10.70;;;3.25;;
56537;SDS011;42435;53.292;6.000;2024-03-23T14:24:44;11.05;;;2.63;;
56537;SDS011;42435;53.292;6.000;2024-03-23T14:27:10;12.35;;;2.92;;
56537;SDS011;42435;53.292;6.000;2024-03-23T14:29:36;10.85;;;2.45;;
56537;SDS011;42435;53.292;6.000;2024-03-23T14:32:02;14.00;;;2.67;;
56537;SDS011;42435;53.292;6.000;2024-03-23T14:34:27;8.68;;;2.22;;
56537;SDS011;42435;53.292;6.000;2024-03-23T14:36:53;9.55;;;2.70;;
56537;SDS011;42435;53.292;6.000;2024-03-23T14:39:23;10.43;;;3.08;;
56537;SDS011;42435;53.292;6.000;2024-03-23T14:41:52;7.25;;;1.88;;
56537;SDS011;42435;53.292;6.000;2024-03-23T14:44:17;9.00;;;2.28;;
56537;SDS011;42435;53.292;6.000;2024-03-23T14:46:43;9.38;;;2.00;;
56537;SDS011;42435;53.292;6.000;2024-03-23T14:49:14;8.10;;;2.55;;
56537;SDS011;42435;53.292;6.000;2024-03-23T14:51:43;9.75;;;2.42;;
56537;SDS011;42435;53.292;6.000;2024-03-23T14:54:09;15.00;;;2.90;;
56537;SDS011;42435;53.292;6.000;2024-03-23T14:56:35;11.93;;;2.28;;
56537;SDS011;42435;53.292;6.000;2024-03-23T14:59:01;6.80;;;2.28;;
56537;SDS011;42435;53.292;6.000;2024-03-23T15:01:28;13.70;;;2.50;;
56537;SDS011;42435;53.292;6.000;2024-03-23T15:03:53;13.32;;;1.73;;
56537;SDS011;42435;53.292;6.000;2024-03-23T15:06:19;10.80;;;2.20;;
56537;SDS011;42435;53.292;6.000;2024-03-23T15:08:45;12.85;;;2.40;;
56537;SDS011;42435;53.292;6.000;2024-03-23T15:11:10;11.10;;;2.15;;
56537;SDS011;42435;53.292;6.000;2024-03-23T15:13:37;14.32;;;2.88;;
56537;SDS011;42435;53.292;6.000;2024-03-23T15:16:04;10.63;;;2.97;;
56537;SDS011;42435;53.292;6.000;2024-03-23T15:18:32;13.00;;;2.50;;
56537;SDS011;42435;53.292;6.000;2024-03-23T15:20:59;15.52;;;2.42;;
56537;SDS011;42435;53.292;6.000;2024-03-23T15:23:28;6.70;;;1.88;;
56537;SDS011;42435;53.292;6.000;2024-03-23T15:25:55;6.70;;;1.70;;
56537;SDS011;42435;53.292;6.000;2024-03-23T15:28:25;6.60;;;1.60;;
56537;SDS011;42435;53.292;6.000;2024-03-23T15:31:19;10.80;;;2.30;;
56537;SDS011;42435;53.292;6.000;2024-03-23T15:33:45;5.82;;;1.98;;
56537;SDS011;42435;53.292;6.000;2024-03-23T15:36:11;6.00;;;1.88;;
56537;SDS011;42435;53.292;6.000;2024-03-23T15:38:37;11.88;;;2.50;;
56537;SDS011;42435;53.292;6.000;2024-03-23T15:41:04;9.95;;;2.00;;
56537;SDS011;42435;53.292;6.000;2024-03-23T15:43:30;10.25;;;3.63;;
56537;SDS011;42435;53.292;6.000;2024-03-23T15:48:27;7.80;;;2.15;;
56537;SDS011;42435;53.292;6.000;2024-03-23T15:50:54;9.50;;;2.05;;
56537;SDS011;42435;53.292;6.000;2024-03-23T15:53:21;8.85;;;2.17;;
56537;SDS011;42435;53.292;6.000;2024-03-23T15:55:58;9.75;;;2.67;;
56537;SDS011;42435;53.292;6.000;2024-03-23T15:58:25;6.90;;;1.77;;
56537;SDS011;42435;53.292;6.000;2024-03-23T16:00:59;9.05;;;1.85;;
56537;SDS011;42435;53.292;6.000;2024-03-23T16:03:26;6.53;;;1.88;;
56537;SDS011;42435;53.292;6.000;2024-03-23T16:08:19;7.80;;;1.83;;
56537;SDS011;42435;53.292;6.000;2024-03-23T16:10:45;12.00;;;2.60;;
56537;SDS011;42435;53.292;6.000;2024-03-23T16:13:10;7.65;;;2.28;;
56537;SDS011;42435;53.292;6.000;2024-03-23T16:15:36;10.90;;;2.45;;
56537;SDS011;42435;53.292;6.000;2024-03-23T16:18:05;9.43;;;2.72;;
56537;SDS011;42435;53.292;6.000;2024-03-23T16:20:31;10.52;;;2.65;;
56537;SDS011;42435;53.292;6.000;2024-03-23T16:23:05;11.40;;;2.88;;
56537;SDS011;42435;53.292;6.000;2024-03-23T16:25:31;9.55;;;2.97;;
56537;SDS011;42435;53.292;6.000;2024-03-23T16:27:57;9.25;;;2.80;;
56537;SDS011;42435;53.292;6.000;2024-03-23T16:30:22;11.57;;;2.72;;
56537;SDS011;42435;53.292;6.000;2024-03-23T16:32:49;10.10;;;2.50;;
56537;SDS011;42435;53.292;6.000;2024-03-23T16:35:15;8.02;;;2.22;;
56537;SDS011;42435;53.292;6.000;2024-03-23T16:37:41;9.35;;;2.47;;
56537;SDS011;42435;53.292;6.000;2024-03-23T16:40:07;11.52;;;2.85;;
56537;SDS011;42435;53.292;6.000;2024-03-23T16:42:34;9.48;;;2.70;;
56537;SDS011;42435;53.292;6.000;2024-03-23T16:45:00;13.35;;;2.75;;
56537;SDS011;42435;53.292;6.000;2024-03-23T16:47:27;7.78;;;2.40;;
56537;SDS011;42435;53.292;6.000;2024-03-23T16:49:54;12.82;;;2.85;;
56537;SDS011;42435;53.292;6.000;2024-03-23T16:52:22;9.23;;;2.97;;